KHOB/HOB METAR and TAF weather

Enter ICAO airport designator
Station Type Date Time Source
KHOB METAR 2021/08/05 04:35 UTC NOAA

KHOB 050435Z AUTO 08007KT 10SM FEW060 BKN095 24/11 A3018 RMK AO2


Station Type Date Time Source
KHOB Decoded METAR 2021/08/05 04:35 UTC NOAA

Hobbs / Lea County, NM, United States (KHOB) 32-41N 103-13W
Aug 05, 2021 - 12:35 AM EDT / 2021.08.05 0435 UTC
Wind: from the E (080 degrees) at 8 MPH (7 KT):0
Visibility: 10 mile(s):0
Sky conditions: mostly cloudy
Temperature: 75 F (24 C)
Dew Point: 51 F (11 C)
Relative Humidity: 43%
Pressure (altimeter): 30.18 in. Hg (1022 hPa)
ob: KHOB 050435Z AUTO 08007KT 10SM FEW060 BKN095 24/11 A3018 RMK AO2
cycle: 4

Station Type Date Time Source
KHOB TAF 2021/08/04 18:22 UTC NOAA

TAF KHOB 041720Z 0418/0518 06007KT P6SM SCT100 SCT250

Example: see airport list